This demonstration page uses our WeatherBlox Daily Observations layout. Learn more.

Left ArrowRight Arrow

Hourly Observations for August 1, 2019

Temp ( °F °C ) Dew Point ( °F °C ) Humidity (%) Winds ( mph kmh ) Pressure ( in mb ) Visibility ( mi km ) Precip ( " mm )
12:56 am 00:56 Clear N/A N/A N/A ESE 8 13 N/A N/A 0.00 0.00
1:56 am 01:56 Mostly Cloudy 66 19 63 17 88 88 SE 8 13 30.12 1020 10 16 0.00 0.00
2:55 am 02:55 Mostly Cloudy 68 20 63 17 83 83 ESE 9 15 30.11 1020 7 11 0.00 0.00
3:56 am 03:56 Mostly Cloudy 68 20 63 17 83 83 SE 10 17 30.10 1019 7 11 0.00 0.00
4:56 am 04:56 Partly Cloudy 68 20 63 17 83 83 ESE 7 11 30.10 1019 7 11 0.00 0.00
5:56 am 05:56 Mostly Cloudy 68 20 63 17 83 83 ESE 6 9 30.11 1020 7 11 0.00 0.00
6:56 am 06:56 Mostly Cloudy 66 19 63 17 88 88 ESE 3 6 30.13 1020 10 16 0.00 0.00
7:56 am 07:56 Sunny N/A N/A N/A SE 6 9 N/A N/A 0.00 0.00
8:56 am 08:56 Sunny 70 21 64 18 83 83 SE 9 15 30.13 1020 10 16 0.00 0.00
9:56 am 09:56 Sunny 73 23 64 18 74 74 SE 12 19 30.14 1021 10 16 0.00 0.00
10:56 am 10:56 Partly Cloudy 75 24 66 19 74 74 SE 8 13 30.14 1021 10 16 0.00 0.00
11:56 am 11:56 Partly Cloudy 81 27 66 19 62 62 SE 12 19 30.13 1020 10 16 0.00 0.00
12:56 pm 12:56 Partly Cloudy 82 28 66 19 58 58 SE 12 19 30.12 1020 10 16 0.00 0.00
1:56 pm 13:56 Sunny N/A N/A N/A ESE 10 17 N/A N/A 0.00 0.00
2:56 pm 14:56 Mostly Cloudy 84 29 66 19 55 55 SSE 14 22 30.09 1019 10 16 0.00 0.00
3:56 pm 15:56 Mostly Cloudy 84 29 68 20 58 58 SE 12 19 30.08 1019 10 16 0.00 0.00
4:56 pm 16:56 Mostly Cloudy 84 29 68 20 58 58 ESE 9 15 30.08 1019 10 16 0.00 0.00
5:56 pm 17:56 Mostly Cloudy 84 29 66 19 55 55 ESE 13 20 30.08 1019 10 16 0.00 0.00
6:56 pm 18:56 Mostly Cloudy 82 28 66 19 58 58 E 12 19 30.07 1018 10 16 0.00 0.00
7:56 pm 19:56 Sunny N/A N/A N/A E 8 13 N/A 10 16 0.00 0.00
8:56 pm 20:56 Mostly Cloudy 79 26 68 20 70 70 ESE 6 9 30.09 1019 10 16 0.00 0.00
9:56 pm 21:56 Mostly Clear N/A N/A N/A E 5 7 N/A 10 16 0.00 0.00
10:56 pm 22:56 Mostly Cloudy 75 24 68 20 78 78 E 7 11 30.11 1020 10 16 0.00 0.00
11:56 pm 23:56 Mostly Clear 75 24 66 19 74 74 ESE 3 6 30.11 1020 10 16 0.00 0.00

Powered by AerisWeather